Terminal Aerodrome Forecast
Issued by NWS New Orleans/Baton Rouge, LA

Home | Current Version | Previous Version | Text Only | Print | Product List | Glossary On
Versions: 1 2 3 4 5 6 7 8 9 10 11 12 13 14 15 16 17
300
FTUS44 KLIX 222250 AAB
TAFBTR
TAF AMD
KBTR 222250Z 2223/2318 17005KT 6SM -SHRA BKN045 BKN080
     FM230000 VRB03KT P6SM SCT050 BKN100
     FM230300 VRB03KT P6SM FEW025 SCT050
     FM231200 00000KT 5SM BR SCT015
     FM231300 00000KT P6SM SCT025 PROB30 2315/2318 4SM TSRA
      BKN025CB=

USA.gov is the U.S. government's official web portal to all federal, state and local government web resources and services.